createdAt,value
2017-11-27T00:00:47.991Z,67.90
2017-11-27T00:03:20.584Z,67.68
2017-11-27T00:05:57.446Z,68.12
2017-11-27T00:08:32.737Z,68.02
2017-11-27T00:11:06.629Z,67.64
2017-11-27T00:13:40.219Z,68.38
2017-11-27T00:16:14.057Z,68.40
2017-11-27T00:18:48.611Z,68.36
2017-11-27T00:21:22.518Z,68.33
2017-11-27T00:23:55.606Z,68.29
2017-11-27T00:26:30.912Z,68.12
2017-11-27T00:29:04.302Z,68.06
2017-11-27T00:31:37.622Z,68.10
2017-11-27T00:34:10.481Z,67.68
2017-11-27T00:36:43.031Z,67.39
2017-11-27T00:39:15.525Z,67.00
2017-11-27T00:41:48.532Z,67.07
2017-11-27T00:44:21.445Z,66.71
2017-11-27T00:46:52.931Z,66.81
2017-11-27T00:49:24.785Z,66.90
2017-11-27T00:51:57.246Z,66.70
2017-11-27T00:54:30.854Z,66.53
2017-11-27T00:57:04.186Z,66.32
2017-11-27T00:59:41.075Z,66.34
2017-11-27T01:02:17.573Z,66.57
2017-11-27T01:04:51.468Z,66.76
2017-11-27T01:07:23.671Z,66.41
2017-11-27T01:09:56.163Z,66.22
2017-11-27T01:12:29.551Z,66.71
2017-11-27T01:15:04.426Z,66.41
2017-11-27T01:17:37.241Z,66.26
2017-11-27T01:20:09.718Z,66.41
2017-11-27T01:22:43.066Z,66.29
2017-11-27T01:25:15.205Z,66.45
2017-11-27T01:27:50.767Z,66.38
2017-11-27T01:30:26.729Z,66.88
2017-11-27T01:33:03.292Z,66.76
2017-11-27T01:35:43.377Z,66.96
2017-11-27T01:38:17.504Z,66.99
2017-11-27T01:40:52.583Z,66.74
2017-11-27T01:43:30.401Z,66.38
2017-11-27T01:46:06.610Z,66.18
2017-11-27T01:48:38.827Z,66.34
2017-11-27T01:51:12.477Z,66.26
2017-11-27T01:53:45.846Z,66.23
2017-11-27T01:56:20.870Z,66.22
2017-11-27T01:58:56.353Z,66.11
2017-11-27T02:01:33.964Z,66.14
2017-11-27T02:04:07.749Z,65.81
2017-11-27T02:06:41.585Z,66.19
2017-11-27T02:09:14.177Z,66.16
2017-11-27T02:11:47.423Z,66.25
2017-11-27T02:14:21.918Z,66.21
2017-11-27T02:16:57.280Z,65.95
2017-11-27T02:19:28.096Z,66.11
2017-11-27T02:22:00.132Z,66.12
2017-11-27T02:24:32.929Z,65.86
2017-11-27T02:27:05.608Z,66.12
2017-11-27T02:29:37.704Z,65.82
2017-11-27T02:32:12.127Z,65.76
2017-11-27T02:34:45.807Z,65.88
2017-11-27T02:37:18.699Z,65.55
2017-11-27T02:39:51.199Z,65.38
2017-11-27T02:42:23.998Z,65.51
2017-11-27T02:44:57.196Z,65.39
2017-11-27T02:47:32.198Z,65.67
2017-11-27T02:50:05.253Z,65.58
2017-11-27T02:52:40.024Z,65.47
2017-11-27T02:55:12.489Z,65.23
2017-11-27T02:57:44.982Z,64.86
2017-11-27T03:00:20.076Z,64.95
2017-11-27T03:02:52.878Z,64.81
2017-11-27T03:05:24.787Z,65.29
2017-11-27T03:07:57.686Z,65.05
2017-11-27T03:10:36.571Z,64.77
2017-11-27T03:13:09.788Z,64.49
2017-11-27T03:15:43.283Z,64.69
2017-11-27T03:18:15.384Z,64.45
2017-11-27T03:20:47.984Z,64.29
2017-11-27T03:23:20.977Z,64.61
2017-11-27T03:25:52.891Z,64.77
2017-11-27T03:28:26.195Z,64.76
2017-11-27T03:30:58.804Z,64.37
2017-11-27T03:33:31.208Z,64.28
2017-11-27T03:36:03.425Z,64.66
2017-11-27T03:38:44.627Z,65.09
2017-11-27T03:41:19.228Z,66.02
2017-11-27T03:43:52.542Z,65.26
2017-11-27T03:46:26.611Z,65.66
2017-11-27T03:48:58.740Z,65.61
2017-11-27T03:51:30.942Z,65.44
2017-11-27T03:54:03.844Z,65.58
2017-11-27T03:56:36.343Z,65.44
2017-11-27T03:59:08.232Z,65.21
2017-11-27T04:01:42.642Z,65.23
2017-11-27T04:04:15.530Z,65.84
2017-11-27T04:06:47.629Z,65.46
2017-11-27T04:09:19.924Z,65.55
2017-11-27T04:11:52.215Z,65.35
2017-11-27T04:14:25.019Z,65.51
2017-11-27T04:16:58.115Z,65.71
2017-11-27T04:19:31.321Z,65.82
2017-11-27T04:22:03.723Z,65.74
2017-11-27T04:24:36.025Z,65.75
2017-11-27T04:27:07.943Z,65.62
2017-11-27T04:29:43.011Z,66.44
2017-11-27T04:32:15.723Z,66.04
2017-11-27T04:34:50.022Z,66.04
2017-11-27T04:37:23.720Z,66.21
2017-11-27T04:39:56.802Z,66.54
2017-11-27T04:42:29.713Z,66.42
2017-11-27T04:45:03.705Z,66.13
2017-11-27T04:47:36.735Z,65.76
2017-11-27T04:50:10.242Z,65.68
2017-11-27T04:52:43.813Z,65.43
2017-11-27T04:55:16.136Z,65.37
2017-11-27T04:57:49.210Z,65.96
2017-11-27T05:00:24.508Z,66.19
2017-11-27T05:05:37.892Z,65.32
2017-11-27T05:08:14.131Z,65.14
2017-11-27T05:10:46.462Z,65.13
2017-11-27T05:13:19.275Z,65.54
2017-11-27T05:15:55.079Z,65.75
2017-11-27T05:18:30.145Z,65.49
2017-11-27T05:21:02.850Z,65.52
2017-11-27T05:26:25.384Z,65.04
2017-11-27T05:28:56.847Z,64.58
2017-11-27T05:31:39.280Z,64.51
2017-11-27T05:34:15.796Z,64.71
2017-11-27T05:36:46.482Z,64.61
2017-11-27T05:39:19.481Z,64.77
2017-11-27T05:41:52.172Z,64.61
2017-11-27T05:44:24.770Z,65.57
2017-11-27T05:46:58.270Z,65.09
2017-11-27T05:49:31.456Z,64.70
2017-11-27T05:52:04.873Z,65.18
2017-11-27T05:54:47.087Z,65.15
2017-11-27T05:57:20.356Z,64.87
2017-11-27T05:59:52.947Z,64.41
2017-11-27T06:02:26.975Z,63.97
2017-11-27T06:05:01.342Z,64.22
2017-11-27T06:07:34.826Z,64.91
2017-11-27T06:10:05.519Z,65.36
2017-11-27T06:12:36.499Z,65.50
2017-11-27T06:15:16.627Z,66.44
2017-11-27T06:17:50.545Z,67.02
2017-11-27T06:20:29.251Z,66.16
2017-11-27T06:23:00.217Z,67.59
2017-11-27T06:25:31.324Z,67.37
2017-11-27T06:28:04.350Z,67.75
2017-11-27T06:30:36.737Z,69.18
2017-11-27T06:33:08.749Z,68.32
2017-11-27T06:35:47.873Z,67.93
2017-11-27T06:38:21.832Z,68.61
2017-11-27T06:40:56.690Z,68.02
2017-11-27T06:43:31.963Z,68.59
2017-11-27T06:46:04.555Z,68.71
2017-11-27T06:48:37.165Z,69.39
2017-11-27T06:51:12.668Z,68.69
2017-11-27T06:53:46.001Z,69.69
2017-11-27T06:56:16.653Z,68.45
2017-11-27T06:58:54.710Z,70.40
2017-11-27T07:01:26.420Z,70.05
2017-11-27T07:04:00.167Z,69.92
2017-11-27T07:06:37.717Z,70.10
2017-11-27T07:09:12.821Z,70.33
2017-11-27T07:11:52.416Z,70.43
2017-11-27T07:14:26.068Z,70.18
2017-11-27T07:16:58.248Z,69.90
2017-11-27T07:19:33.737Z,70.34
2017-11-27T07:22:11.025Z,70.36
2017-11-27T07:24:43.842Z,69.83
2017-11-27T07:27:16.277Z,71.09
2017-11-27T07:29:47.911Z,70.74
2017-11-27T07:32:20.021Z,71.49
2017-11-27T07:34:52.204Z,72.12
2017-11-27T07:37:29.418Z,72.37
2017-11-27T07:40:11.623Z,72.20
2017-11-27T07:42:47.318Z,72.19
2017-11-27T07:45:25.765Z,72.49
2017-11-27T07:48:03.115Z,73.49
2017-11-27T07:50:39.413Z,73.26
2017-11-27T07:53:12.213Z,73.75
2017-11-27T07:55:47.202Z,73.26
2017-11-27T07:58:18.097Z,72.20
2017-11-27T08:00:49.743Z,72.91
2017-11-27T08:03:21.604Z,72.40
2017-11-27T08:05:54.230Z,72.48
2017-11-27T08:08:27.951Z,72.80
2017-11-27T08:11:00.843Z,73.39
2017-11-27T08:13:35.944Z,72.97
2017-11-27T08:16:08.440Z,74.71
2017-11-27T08:18:41.547Z,74.84
2017-11-27T08:21:14.781Z,74.57
2017-11-27T08:23:47.374Z,73.42
2017-11-27T08:26:21.413Z,72.98
2017-11-27T08:28:54.177Z,73.45
2017-11-27T08:31:27.759Z,72.56
2017-11-27T08:33:59.766Z,71.96
2017-11-27T08:36:31.943Z,72.50
2017-11-27T08:39:07.526Z,72.33
2017-11-27T08:41:40.436Z,72.04
2017-11-27T08:44:13.962Z,72.62
2017-11-27T08:46:47.935Z,72.20
2017-11-27T08:49:20.544Z,72.31
2017-11-27T08:51:56.003Z,72.34
2017-11-27T08:54:30.422Z,72.52
2017-11-27T08:57:02.777Z,72.38
2017-11-27T08:59:45.921Z,73.01
2017-11-27T09:02:18.222Z,73.49
2017-11-27T09:04:52.486Z,73.06
2017-11-27T09:07:28.935Z,74.26
2017-11-27T09:10:04.608Z,73.38
2017-11-27T09:12:38.906Z,73.40
2017-11-27T09:15:15.340Z,73.87
2017-11-27T09:17:50.208Z,73.99
2017-11-27T09:20:23.293Z,74.00
2017-11-27T09:22:57.842Z,74.36
2017-11-27T09:25:37.807Z,74.12
2017-11-27T09:28:14.202Z,73.97
2017-11-27T09:30:47.415Z,75.28
2017-11-27T09:33:18.627Z,74.25
2017-11-27T09:35:52.710Z,74.07
2017-11-27T09:38:26.116Z,74.12
2017-11-27T09:41:01.352Z,73.44
2017-11-27T09:43:37.637Z,73.69
2017-11-27T09:46:11.353Z,74.24
2017-11-27T09:48:45.654Z,74.55
2017-11-27T09:51:19.920Z,74.33
2017-11-27T09:53:55.884Z,74.06
2017-11-27T09:56:33.092Z,74.40
2017-11-27T09:59:07.475Z,73.82
2017-11-27T10:01:42.737Z,73.42
2017-11-27T10:04:17.392Z,73.69
2017-11-27T10:07:00.243Z,73.98
2017-11-27T10:09:39.783Z,74.46
2017-11-27T10:12:17.096Z,74.40
2017-11-27T10:14:50.285Z,74.09
2017-11-27T10:17:27.077Z,74.43
2017-11-27T10:20:03.367Z,74.80
2017-11-27T10:22:45.563Z,74.60
2017-11-27T10:25:21.564Z,74.87
2017-11-27T10:27:55.827Z,74.96
2017-11-27T10:30:33.181Z,75.32
2017-11-27T10:33:07.559Z,75.13
2017-11-27T10:35:42.614Z,75.14
2017-11-27T10:40:54.941Z,75.05
2017-11-27T10:43:34.700Z,74.33
2017-11-27T10:46:16.047Z,73.92
2017-11-27T10:48:51.978Z,73.57
2017-11-27T10:51:28.768Z,73.83
2017-11-27T10:54:01.810Z,74.20
2017-11-27T10:56:44.382Z,73.72
2017-11-27T10:59:24.953Z,74.37
2017-11-27T11:02:00.005Z,74.19
2017-11-27T11:04:39.123Z,74.52
2017-11-27T11:07:12.717Z,74.94
2017-11-27T11:09:47.108Z,74.63
2017-11-27T11:12:23.611Z,74.96
2017-11-27T11:14:59.216Z,74.53
2017-11-27T11:17:40.404Z,74.19
2017-11-27T11:20:14.219Z,73.98
2017-11-27T11:22:48.200Z,74.17
2017-11-27T11:25:21.325Z,73.80
2017-11-27T11:27:54.906Z,73.18
2017-11-27T11:30:27.857Z,74.01
2017-11-27T11:33:02.246Z,73.62
2017-11-27T11:38:26.593Z,73.38
2017-11-27T11:41:01.607Z,73.22
2017-11-27T11:43:39.440Z,73.07
2017-11-27T11:46:18.669Z,73.42
2017-11-27T11:48:55.946Z,73.41
2017-11-27T11:51:39.731Z,73.04
2017-11-27T11:54:13.804Z,73.25
2017-11-27T11:56:46.302Z,73.59
2017-11-27T11:59:19.501Z,73.07
2017-11-27T12:01:57.799Z,73.05
2017-11-27T12:04:32.346Z,72.83
2017-11-27T12:07:17.795Z,72.87
2017-11-27T12:09:51.996Z,72.96
2017-11-27T12:12:25.809Z,73.07
2017-11-27T12:14:57.669Z,73.12
2017-11-27T12:17:39.802Z,72.93
2017-11-27T12:20:16.300Z,73.26
2017-11-27T12:22:52.636Z,74.22
2017-11-27T12:25:28.450Z,74.63
2017-11-27T12:28:07.118Z,74.71
2017-11-27T12:30:43.352Z,74.21
2017-11-27T12:33:15.569Z,74.07
2017-11-27T12:35:47.935Z,74.10
2017-11-27T12:38:22.934Z,73.95
2017-11-27T12:40:57.829Z,74.45
2017-11-27T12:43:30.275Z,74.23
2017-11-27T12:46:04.400Z,73.59
2017-11-27T12:48:36.544Z,73.99
2017-11-27T12:51:11.556Z,74.13
2017-11-27T12:53:47.059Z,73.83
2017-11-27T12:56:19.566Z,73.92
2017-11-27T12:58:51.963Z,73.87
2017-11-27T13:01:27.358Z,73.82
2017-11-27T13:04:01.546Z,73.66
2017-11-27T13:06:34.755Z,73.83
2017-11-27T13:09:08.346Z,73.53
2017-11-27T13:11:43.869Z,74.04
2017-11-27T13:14:17.356Z,73.83
2017-11-27T13:16:51.647Z,73.48
2017-11-27T13:19:24.757Z,73.83
2017-11-27T13:21:59.459Z,73.47
2017-11-27T13:24:31.920Z,73.22
2017-11-27T13:27:08.056Z,73.38
2017-11-27T13:29:46.065Z,73.67
2017-11-27T13:32:20.272Z,73.73
2017-11-27T13:34:53.147Z,73.39
2017-11-27T13:37:26.076Z,73.33
2017-11-27T13:40:07.358Z,73.43
2017-11-27T13:42:42.032Z,73.45
2017-11-27T13:45:17.612Z,73.64
2017-11-27T13:47:50.529Z,73.63
2017-11-27T13:50:24.552Z,73.49
2017-11-27T13:52:59.769Z,73.72
2017-11-27T13:55:33.731Z,73.64
2017-11-27T13:58:22.024Z,73.25
2017-11-27T14:00:57.833Z,73.47
2017-11-27T14:03:31.630Z,73.39
2017-11-27T14:06:05.332Z,73.89
2017-11-27T14:08:37.512Z,73.88
2017-11-27T14:11:17.518Z,73.72
2017-11-27T14:13:51.840Z,73.94
2017-11-27T14:16:25.655Z,73.86
2017-11-27T14:18:58.066Z,73.93
2017-11-27T14:21:32.170Z,73.83
2017-11-27T14:24:04.676Z,73.49
2017-11-27T14:26:37.580Z,73.97
2017-11-27T14:29:10.694Z,73.54
2017-11-27T14:31:44.329Z,73.22
2017-11-27T14:34:20.489Z,73.34
2017-11-27T14:36:56.005Z,73.50
2017-11-27T14:39:28.489Z,73.63
2017-11-27T14:42:00.590Z,73.42
2017-11-27T14:44:31.992Z,73.60
2017-11-27T14:47:04.985Z,73.43
2017-11-27T14:49:38.514Z,73.69
2017-11-27T14:52:14.972Z,73.54
2017-11-27T14:54:47.826Z,73.33
2017-11-27T14:57:21.271Z,73.03
2017-11-27T14:59:53.771Z,72.88
2017-11-27T15:02:27.366Z,73.08
2017-11-27T15:05:01.617Z,73.42
2017-11-27T15:07:36.263Z,73.57
2017-11-27T15:10:24.764Z,73.18
2017-11-27T15:12:58.775Z,72.82
2017-11-27T15:15:33.557Z,72.27
2017-11-27T15:18:11.360Z,72.40
2017-11-27T15:20:50.168Z,72.32
2017-11-27T15:23:24.464Z,72.19
2017-11-27T15:26:02.469Z,71.98
2017-11-27T15:28:38.538Z,71.83
2017-11-27T15:31:11.477Z,72.19
2017-11-27T15:33:52.673Z,71.72
2017-11-27T15:36:26.370Z,72.57
2017-11-27T15:39:00.185Z,72.96
2017-11-27T15:41:34.962Z,72.42
2017-11-27T15:44:08.595Z,72.60
2017-11-27T15:46:49.478Z,72.55
2017-11-27T15:49:23.183Z,72.58
2017-11-27T15:51:57.169Z,72.38
2017-11-27T15:54:30.847Z,72.42
2017-11-27T15:57:06.668Z,72.63
2017-11-27T15:59:44.686Z,72.58
2017-11-27T16:02:21.561Z,72.47
2017-11-27T16:04:59.620Z,72.30
2017-11-27T16:07:39.409Z,72.23
2017-11-27T16:10:11.711Z,72.15
2017-11-27T16:12:46.100Z,72.78
2017-11-27T16:15:19.804Z,71.92
2017-11-27T16:17:53.106Z,72.42
2017-11-27T16:20:25.611Z,72.26
2017-11-27T16:23:02.108Z,71.83
2017-11-27T16:25:33.448Z,71.77
2017-11-27T16:28:04.171Z,72.10
2017-11-27T16:30:38.306Z,71.73
2017-11-27T16:33:13.206Z,71.44
2017-11-27T16:35:45.198Z,71.78
2017-11-27T16:38:17.601Z,71.72
2017-11-27T16:43:34.911Z,71.57
2017-11-27T16:46:11.482Z,71.34
2017-11-27T16:48:45.309Z,71.38
2017-11-27T16:51:20.417Z,71.59
2017-11-27T16:53:56.802Z,71.31
2017-11-27T16:56:31.301Z,71.32
2017-11-27T16:59:03.894Z,71.30
2017-11-27T17:01:40.006Z,71.35
2017-11-27T17:04:13.717Z,72.01
2017-11-27T17:06:48.243Z,71.85
2017-11-27T17:09:27.626Z,71.80
2017-11-27T17:12:00.631Z,72.14
2017-11-27T17:14:35.735Z,72.24
2017-11-27T17:17:10.246Z,72.18
2017-11-27T17:19:44.036Z,72.40
2017-11-27T17:22:16.753Z,72.80
2017-11-27T17:24:51.493Z,72.81
2017-11-27T17:27:30.002Z,73.39
2017-11-27T17:30:05.866Z,73.92
2017-11-27T17:32:45.697Z,73.92
2017-11-27T17:35:20.074Z,74.19
2017-11-27T17:37:59.546Z,75.02
2017-11-27T17:40:50.709Z,75.44
2017-11-27T17:43:27.900Z,75.20
2017-11-27T17:46:07.046Z,74.73
2017-11-27T17:49:00.567Z,74.24
2017-11-27T17:51:35.310Z,74.82
2017-11-27T17:54:09.922Z,75.20
2017-11-27T17:56:43.915Z,76.29
2017-11-27T17:59:23.349Z,76.63
2017-11-27T18:02:02.453Z,75.88
2017-11-27T18:04:35.225Z,76.04
2017-11-27T18:07:10.246Z,75.40
2017-11-27T18:09:47.245Z,75.65
2017-11-27T18:12:21.338Z,75.67
2017-11-27T18:14:56.796Z,75.23
2017-11-27T18:17:31.373Z,75.13
2017-11-27T18:20:08.267Z,74.44
2017-11-27T18:22:43.240Z,74.37
2017-11-27T18:25:16.132Z,74.28
2017-11-27T18:27:51.433Z,74.08
2017-11-27T18:30:24.543Z,73.69
2017-11-27T18:32:58.643Z,73.25
2017-11-27T18:35:32.516Z,73.27
2017-11-27T18:38:07.827Z,73.47
2017-11-27T18:40:42.132Z,73.14
2017-11-27T18:43:20.317Z,73.42
2017-11-27T18:45:59.637Z,73.15
2017-11-27T18:48:33.452Z,72.71
2017-11-27T18:51:07.281Z,73.06
2017-11-27T18:53:42.796Z,73.35
2017-11-27T18:56:46.496Z,73.36
2017-11-27T18:59:29.604Z,73.11
2017-11-27T19:02:09.045Z,72.82
2017-11-27T19:04:45.613Z,72.89
2017-11-27T19:07:24.664Z,72.73
2017-11-27T19:09:59.297Z,72.55
2017-11-27T19:12:33.938Z,72.44
2017-11-27T19:15:19.801Z,72.32
2017-11-27T19:17:54.943Z,72.03
2017-11-27T19:20:30.666Z,72.79
2017-11-27T19:23:04.133Z,73.67
2017-11-27T19:25:38.002Z,74.31
2017-11-27T19:28:15.981Z,74.07
2017-11-27T19:30:51.581Z,74.01
2017-11-27T19:33:24.171Z,74.21
2017-11-27T19:35:58.184Z,74.52
2017-11-27T19:38:32.848Z,74.31
2017-11-27T19:41:07.941Z,74.15
2017-11-27T19:43:48.013Z,74.21
2017-11-27T19:46:25.838Z,73.93
2017-11-27T19:49:02.605Z,74.27
2017-11-27T19:51:36.926Z,73.70
2017-11-27T19:54:15.955Z,73.27
2017-11-27T19:56:51.893Z,72.84
2017-11-27T19:59:24.693Z,72.30
2017-11-27T20:01:57.397Z,72.87
2017-11-27T20:04:29.601Z,72.37
2017-11-27T20:07:03.414Z,72.13
2017-11-27T20:09:44.600Z,72.00
2017-11-27T20:12:19.212Z,71.80
2017-11-27T20:14:51.045Z,71.38
2017-11-27T20:17:28.364Z,71.58
2017-11-27T20:20:03.020Z,71.53
2017-11-27T20:22:41.328Z,71.46
2017-11-27T20:25:20.349Z,71.13
2017-11-27T20:27:53.744Z,71.17
2017-11-27T20:30:31.995Z,71.23
2017-11-27T20:33:07.125Z,71.08
2017-11-27T20:35:42.747Z,70.68
2017-11-27T20:38:16.706Z,70.35
2017-11-27T20:40:56.196Z,70.31
2017-11-27T20:43:29.632Z,70.51
2017-11-27T20:46:21.897Z,70.37
2017-11-27T20:48:56.725Z,70.33
2017-11-27T20:51:32.104Z,69.88
2017-11-27T20:54:09.203Z,70.11
2017-11-27T20:56:42.697Z,70.20
2017-11-27T20:59:22.307Z,70.62
2017-11-27T21:02:02.393Z,70.40
2017-11-27T21:04:35.392Z,70.23
2017-11-27T21:07:07.797Z,70.22
2017-11-27T21:09:44.984Z,70.78
2017-11-27T21:12:16.414Z,70.59
2017-11-27T21:17:28.501Z,71.40
2017-11-27T21:20:04.232Z,71.04
2017-11-27T21:22:38.416Z,71.08
2017-11-27T21:25:14.902Z,70.64
2017-11-27T21:27:48.265Z,70.41
2017-11-27T21:30:22.492Z,70.48
2017-11-27T21:32:55.745Z,70.27
2017-11-27T21:35:28.423Z,69.73
2017-11-27T21:38:00.985Z,67.73
2017-11-27T21:40:34.443Z,70.05
2017-11-27T21:43:07.632Z,70.72
2017-11-27T21:45:54.847Z,71.18
2017-11-27T21:48:25.977Z,71.81
2017-11-27T21:51:00.540Z,71.49
2017-11-27T21:53:35.657Z,72.37
2017-11-27T21:56:12.255Z,72.63
2017-11-27T21:58:46.657Z,73.15
2017-11-27T22:01:18.599Z,73.14
2017-11-27T22:03:49.828Z,73.02
2017-11-27T22:06:20.835Z,72.90
2017-11-27T22:08:53.354Z,73.24
2017-11-27T22:11:24.841Z,73.49
2017-11-27T22:13:58.537Z,73.84
2017-11-27T22:16:33.684Z,74.14
2017-11-27T22:19:05.985Z,73.88
2017-11-27T22:21:37.705Z,74.08
2017-11-27T22:24:10.523Z,74.44
2017-11-27T22:26:44.618Z,74.48
2017-11-27T22:29:22.733Z,74.58
2017-11-27T22:31:55.910Z,74.58
2017-11-27T22:34:28.568Z,74.56
2017-11-27T22:37:00.091Z,74.60
2017-11-27T22:39:32.058Z,74.88
2017-11-27T22:42:04.212Z,74.86
2017-11-27T22:44:39.007Z,75.00
2017-11-27T22:47:17.398Z,74.79
2017-11-27T22:49:49.803Z,74.50
2017-11-27T22:52:26.619Z,74.40
2017-11-27T22:55:02.798Z,74.49
2017-11-27T22:57:35.817Z,73.80
2017-11-27T23:00:14.865Z,73.81
2017-11-27T23:02:55.494Z,73.79
2017-11-27T23:05:28.560Z,73.17
2017-11-27T23:08:01.874Z,73.40
2017-11-27T23:10:33.511Z,73.15
2017-11-27T23:13:04.792Z,73.17
2017-11-27T23:15:38.656Z,72.88
2017-11-27T23:18:16.062Z,72.47
2017-11-27T23:20:52.040Z,72.37
2017-11-27T23:23:24.054Z,71.74
2017-11-27T23:26:00.676Z,72.08
2017-11-27T23:28:33.076Z,71.93
2017-11-27T23:31:05.426Z,72.02
2017-11-27T23:33:39.725Z,72.14
2017-11-27T23:36:14.853Z,72.04
2017-11-27T23:38:49.925Z,71.79
2017-11-27T23:41:25.699Z,71.61
2017-11-27T23:43:56.886Z,71.66
2017-11-27T23:46:28.747Z,71.66
2017-11-27T23:49:02.464Z,71.33
2017-11-27T23:51:37.820Z,71.27
2017-11-27T23:54:12.341Z,70.95
2017-11-27T23:59:34.387Z,71.24
